SWA3618 KLIT-KHOU
Flight info
| Callsign | SWA3618 |
|---|---|
| Flight time | N/A |
| Altitude | 30000 |
| Route | CIPOP SWEUP WAPPL7 |
| Aircraft | B737/M-VGDW/C |
Departure
| Time | 2026-04-27 01:00 |
|---|---|
| Airport | Bill & Hillary Clinton National Airport/Adams Field (KLIT) |
Arrival
| Time | N/A |
|---|---|
| Airport | William P. Hobby Airport (KHOU) |
| Time | Latitude | Longitude | Altitude | Speed | Heading |
|---|---|---|---|---|---|
| 2026-04-27 00:56 | 34.73112 | -92.21995 | 268 ft | 0 kts | 156° |
| 2026-04-27 00:57 | 34.73117 | -92.21998 | 268 ft | 2 kts | 154° |
| 2026-04-27 00:57 | 34.73132 | -92.22007 | 268 ft | 2 kts | 152° |
| 2026-04-27 00:57 | 34.73146 | -92.22016 | 268 ft | 2 kts | 148° |
| 2026-04-27 00:57 | 34.73160 | -92.22027 | 268 ft | 2 kts | 142° |
| 2026-04-27 00:58 | 34.73172 | -92.22041 | 268 ft | 2 kts | 126° |
| 2026-04-27 00:58 | 34.73179 | -92.22059 | 268 ft | 2 kts | 80° |
| 2026-04-27 00:58 | 34.73173 | -92.22074 | 268 ft | 1 kts | 38° |
| 2026-04-27 00:58 | 34.73193 | -92.22069 | 268 ft | 18 kts | 5° |
| 2026-04-27 00:59 | 34.73295 | -92.22250 | 268 ft | 33 kts | 288° |
| 2026-04-27 00:59 | 34.73248 | -92.22512 | 267 ft | 51 kts | 231° |
| 2026-04-27 00:59 | 34.72774 | -92.23132 | 263 ft | 145 kts | 227° |
| 2026-04-27 00:59 | 34.71922 | -92.24236 | 554 ft | 197 kts | 227° |
| 2026-04-27 01:00 | 34.71109 | -92.25342 | 1444 ft | 209 kts | 222° |
| 2026-04-27 01:00 | 34.69935 | -92.26419 | 2116 ft | 223 kts | 197° |
| 2026-04-27 01:00 | 34.68321 | -92.26462 | 2513 ft | 244 kts | 166° |
| 2026-04-27 01:00 | 34.66649 | -92.26005 | 3466 ft | 249 kts | 172° |
| 2026-04-27 01:01 | 34.64915 | -92.25840 | 4594 ft | 251 kts | 180° |
| 2026-04-27 01:01 | 34.63185 | -92.25946 | 5653 ft | 254 kts | 186° |
| 2026-04-27 01:01 | 34.61416 | -92.26146 | 6698 ft | 257 kts | 187° |
| 2026-04-27 01:01 | 34.59609 | -92.26373 | 7605 ft | 264 kts | 188° |
| 2026-04-27 01:02 | 34.57763 | -92.26624 | 8522 ft | 270 kts | 189° |
| 2026-04-27 01:02 | 34.55881 | -92.26893 | 9459 ft | 275 kts | 189° |
| 2026-04-27 01:02 | 34.53941 | -92.27183 | 10124 ft | 291 kts | 190° |
| 2026-04-27 01:02 | 34.51832 | -92.27510 | 10336 ft | 320 kts | 190° |
| 2026-04-27 01:03 | 34.49532 | -92.27874 | 10522 ft | 347 kts | 190° |
| 2026-04-27 01:03 | 34.47056 | -92.28269 | 10691 ft | 370 kts | 190° |
| 2026-04-27 01:03 | 34.44428 | -92.28690 | 10912 ft | 389 kts | 190° |
| 2026-04-27 01:03 | 34.41743 | -92.29120 | 11380 ft | 398 kts | 190° |
| 2026-04-27 01:04 | 34.38984 | -92.29562 | 12002 ft | 402 kts | 191° |
| 2026-04-27 01:04 | 34.36196 | -92.30009 | 12608 ft | 407 kts | 191° |
| 2026-04-27 01:04 | 34.33373 | -92.30464 | 13164 ft | 412 kts | 191° |
| 2026-04-27 01:04 | 34.30510 | -92.30927 | 13719 ft | 417 kts | 191° |
| 2026-04-27 01:05 | 34.27624 | -92.31393 | 14212 ft | 421 kts | 191° |
| 2026-04-27 01:05 | 34.24708 | -92.31865 | 14705 ft | 424 kts | 192° |
| 2026-04-27 01:05 | 34.21769 | -92.32341 | 15208 ft | 428 kts | 192° |
| 2026-04-27 01:05 | 34.18805 | -92.32820 | 15698 ft | 431 kts | 192° |
| 2026-04-27 01:06 | 34.15821 | -92.33302 | 16171 ft | 435 kts | 192° |
| 2026-04-27 01:06 | 34.12854 | -92.33782 | 16633 ft | 438 kts | 192° |
| 2026-04-27 01:06 | 34.09818 | -92.34272 | 17103 ft | 441 kts | 192° |
| 2026-04-27 01:06 | 34.06762 | -92.34765 | 17558 ft | 445 kts | 192° |
| 2026-04-27 01:07 | 34.03682 | -92.35261 | 17985 ft | 448 kts | 192° |
| 2026-04-27 01:07 | 34.00586 | -92.35760 | 18373 ft | 451 kts | 192° |
| 2026-04-27 01:07 | 33.97466 | -92.36262 | 18743 ft | 454 kts | 192° |
| 2026-04-27 01:07 | 33.94326 | -92.36766 | 19127 ft | 456 kts | 192° |
| 2026-04-27 01:08 | 33.91177 | -92.37271 | 19501 ft | 458 kts | 192° |
| 2026-04-27 01:08 | 33.88016 | -92.37778 | 19868 ft | 460 kts | 192° |
| 2026-04-27 01:08 | 33.84875 | -92.38282 | 20209 ft | 462 kts | 192° |
| 2026-04-27 01:08 | 33.81681 | -92.38794 | 20545 ft | 465 kts | 192° |
| 2026-04-27 01:09 | 33.78464 | -92.39310 | 20867 ft | 467 kts | 192° |
| 2026-04-27 01:09 | 33.75234 | -92.39827 | 21176 ft | 469 kts | 192° |
| 2026-04-27 01:09 | 33.71986 | -92.40346 | 21478 ft | 472 kts | 192° |
| 2026-04-27 01:09 | 33.68726 | -92.40867 | 21773 ft | 474 kts | 192° |
| 2026-04-27 01:10 | 33.65449 | -92.41390 | 22054 ft | 476 kts | 192° |
| 2026-04-27 01:10 | 33.62160 | -92.41915 | 22323 ft | 478 kts | 192° |
| 2026-04-27 01:10 | 33.58858 | -92.42442 | 22595 ft | 480 kts | 192° |
| 2026-04-27 01:10 | 33.55540 | -92.42970 | 22853 ft | 482 kts | 192° |
| 2026-04-27 01:11 | 33.52213 | -92.43500 | 23089 ft | 484 kts | 192° |
| 2026-04-27 01:11 | 33.48914 | -92.44025 | 23320 ft | 486 kts | 192° |
| 2026-04-27 01:11 | 33.45558 | -92.44558 | 23532 ft | 487 kts | 192° |
| 2026-04-27 01:11 | 33.42192 | -92.45093 | 23715 ft | 489 kts | 192° |
| 2026-04-27 01:12 | 33.38820 | -92.45628 | 23955 ft | 489 kts | 192° |
| 2026-04-27 01:12 | 33.35854 | -92.46097 | 24201 ft | 488 kts | 192° |
| 2026-04-27 01:12 | 33.32496 | -92.46628 | 24502 ft | 487 kts | 192° |
| 2026-04-27 01:12 | 33.29137 | -92.47159 | 24806 ft | 487 kts | 192° |
| 2026-04-27 01:13 | 33.25775 | -92.47691 | 25103 ft | 487 kts | 192° |
| 2026-04-27 01:13 | 33.22466 | -92.48215 | 25411 ft | 487 kts | 192° |
| 2026-04-27 01:13 | 33.19110 | -92.48745 | 25762 ft | 486 kts | 192° |
| 2026-04-27 01:13 | 33.15761 | -92.49274 | 26121 ft | 486 kts | 192° |
| 2026-04-27 01:14 | 33.12408 | -92.49799 | 26482 ft | 485 kts | 192° |
| 2026-04-27 01:14 | 33.09062 | -92.50322 | 26869 ft | 485 kts | 192° |
| 2026-04-27 01:14 | 33.05717 | -92.50850 | 27272 ft | 484 kts | 193° |
| 2026-04-27 01:14 | 33.02381 | -92.51378 | 27682 ft | 484 kts | 193° |
| 2026-04-27 01:15 | 32.99046 | -92.51905 | 28106 ft | 483 kts | 193° |
| 2026-04-27 01:15 | 32.95760 | -92.52423 | 28553 ft | 482 kts | 193° |
| 2026-04-27 01:15 | 32.92442 | -92.52944 | 29012 ft | 481 kts | 193° |
| 2026-04-27 01:15 | 32.89121 | -92.53462 | 29493 ft | 480 kts | 193° |
| 2026-04-27 01:16 | 32.85809 | -92.53976 | 29890 ft | 480 kts | 193° |
| 2026-04-27 01:16 | 32.79199 | -92.55006 | 29870 ft | 477 kts | 193° |
| 2026-04-27 01:17 | 32.72612 | -92.56046 | 29879 ft | 480 kts | 193° |
| 2026-04-27 01:17 | 32.65962 | -92.57096 | 29886 ft | 490 kts | 193° |
| 2026-04-27 01:18 | 32.59158 | -92.58158 | 29879 ft | 496 kts | 193° |
| 2026-04-27 01:18 | 32.52296 | -92.59223 | 29874 ft | 498 kts | 193° |
| 2026-04-27 01:19 | 32.45410 | -92.60291 | 29869 ft | 500 kts | 193° |
| 2026-04-27 01:19 | 32.38517 | -92.61359 | 29874 ft | 500 kts | 193° |
| 2026-04-27 01:20 | 32.31663 | -92.62421 | 29878 ft | 500 kts | 193° |
| 2026-04-27 01:20 | 32.24758 | -92.63490 | 29877 ft | 500 kts | 193° |
| 2026-04-27 01:21 | 32.17856 | -92.64556 | 29879 ft | 500 kts | 193° |
| 2026-04-27 01:21 | 32.10957 | -92.65620 | 29880 ft | 499 kts | 193° |
| 2026-04-27 01:22 | 32.04128 | -92.66672 | 29872 ft | 497 kts | 194° |
| 2026-04-27 01:22 | 31.97778 | -92.68063 | 29853 ft | 483 kts | 208° |
| 2026-04-27 01:22 | 31.94868 | -92.69893 | 29872 ft | 468 kts | 223° |
| 2026-04-27 01:23 | 31.92360 | -92.72284 | 29903 ft | 463 kts | 226° |
| 2026-04-27 01:23 | 31.87741 | -92.76887 | 29888 ft | 461 kts | 227° |
| 2026-04-27 01:24 | 31.82839 | -92.81738 | 29867 ft | 460 kts | 226° |
| 2026-04-27 01:24 | 31.77956 | -92.86498 | 29884 ft | 459 kts | 226° |
| 2026-04-27 01:25 | 31.73035 | -92.91258 | 29884 ft | 458 kts | 226° |
| 2026-04-27 01:25 | 31.68125 | -92.95998 | 29891 ft | 457 kts | 226° |
| 2026-04-27 01:26 | 31.63213 | -93.00733 | 29890 ft | 456 kts | 226° |
| 2026-04-27 01:26 | 31.58344 | -93.05422 | 29883 ft | 456 kts | 226° |
| 2026-04-27 01:27 | 31.53442 | -93.10137 | 29881 ft | 456 kts | 226° |
| 2026-04-27 01:27 | 31.48534 | -93.14851 | 29874 ft | 456 kts | 226° |
| 2026-04-27 01:28 | 31.43619 | -93.19565 | 29868 ft | 457 kts | 226° |
| 2026-04-27 01:28 | 31.38700 | -93.24275 | 29866 ft | 457 kts | 226° |
| 2026-04-27 01:29 | 31.33780 | -93.28980 | 29875 ft | 457 kts | 226° |
| 2026-04-27 01:29 | 31.28891 | -93.33649 | 29875 ft | 457 kts | 226° |
| 2026-04-27 01:30 | 31.23969 | -93.38344 | 29878 ft | 456 kts | 226° |
| 2026-04-27 01:30 | 31.19048 | -93.43030 | 29875 ft | 456 kts | 226° |
| 2026-04-27 01:31 | 31.14161 | -93.47678 | 29880 ft | 456 kts | 226° |
| 2026-04-27 01:31 | 31.09242 | -93.52351 | 29871 ft | 456 kts | 226° |
| 2026-04-27 01:32 | 31.04322 | -93.57017 | 29881 ft | 456 kts | 226° |
| 2026-04-27 01:32 | 30.99628 | -93.61464 | 29876 ft | 456 kts | 226° |
| 2026-04-27 01:33 | 30.94706 | -93.66121 | 29878 ft | 456 kts | 225° |
| 2026-04-27 01:33 | 30.89817 | -93.70740 | 29878 ft | 456 kts | 225° |
| 2026-04-27 01:34 | 30.84891 | -93.75388 | 29880 ft | 456 kts | 225° |
| 2026-04-27 01:34 | 30.79959 | -93.80036 | 29880 ft | 456 kts | 225° |
| 2026-04-27 01:35 | 30.75021 | -93.84671 | 29873 ft | 457 kts | 225° |
| 2026-04-27 01:35 | 30.70101 | -93.89265 | 29881 ft | 456 kts | 225° |
| 2026-04-27 01:36 | 30.65153 | -93.93885 | 29877 ft | 457 kts | 225° |
| 2026-04-27 01:36 | 30.60510 | -93.98218 | 29874 ft | 457 kts | 225° |
| 2026-04-27 01:37 | 30.55563 | -94.02853 | 29881 ft | 457 kts | 225° |
| 2026-04-27 01:37 | 30.50619 | -94.07486 | 29877 ft | 457 kts | 225° |
| 2026-04-27 01:38 | 30.45706 | -94.12082 | 29874 ft | 457 kts | 225° |
| 2026-04-27 01:38 | 30.40748 | -94.16712 | 29284 ft | 450 kts | 224° |
| 2026-04-27 01:38 | 30.38634 | -94.18674 | 28787 ft | 436 kts | 224° |
| 2026-04-27 01:39 | 30.36309 | -94.20829 | 28231 ft | 421 kts | 225° |
| 2026-04-27 01:39 | 30.34193 | -94.22800 | 27749 ft | 412 kts | 225° |
| 2026-04-27 01:39 | 30.31977 | -94.24871 | 27198 ft | 406 kts | 225° |
| 2026-04-27 01:39 | 30.29806 | -94.26896 | 26804 ft | 398 kts | 225° |
| 2026-04-27 01:40 | 30.27685 | -94.28871 | 26294 ft | 396 kts | 225° |
| 2026-04-27 01:40 | 30.25544 | -94.30860 | 25791 ft | 393 kts | 225° |
| 2026-04-27 01:40 | 30.23665 | -94.33086 | 25273 ft | 382 kts | 239° |
| 2026-04-27 01:40 | 30.22403 | -94.35746 | 24602 ft | 377 kts | 254° |
| 2026-04-27 01:41 | 30.21615 | -94.38619 | 24073 ft | 375 kts | 257° |
| 2026-04-27 01:41 | 30.20870 | -94.41506 | 23550 ft | 374 kts | 257° |
| 2026-04-27 01:41 | 30.20130 | -94.44375 | 22943 ft | 370 kts | 257° |
| 2026-04-27 01:41 | 30.19401 | -94.47167 | 22412 ft | 365 kts | 257° |
| 2026-04-27 01:42 | 30.18665 | -94.49952 | 21896 ft | 360 kts | 256° |
| 2026-04-27 01:42 | 30.17931 | -94.52711 | 21386 ft | 358 kts | 256° |
| 2026-04-27 01:42 | 30.17195 | -94.55458 | 20886 ft | 357 kts | 256° |
| 2026-04-27 01:42 | 30.16459 | -94.58202 | 20382 ft | 357 kts | 256° |
| 2026-04-27 01:43 | 30.15723 | -94.60934 | 19891 ft | 357 kts | 256° |
| 2026-04-27 01:43 | 30.14987 | -94.63670 | 19357 ft | 357 kts | 256° |
| 2026-04-27 01:43 | 30.14247 | -94.66427 | 18794 ft | 360 kts | 255° |
| 2026-04-27 01:43 | 30.13504 | -94.69190 | 18270 ft | 360 kts | 255° |
| 2026-04-27 01:44 | 30.12775 | -94.71899 | 17724 ft | 356 kts | 255° |
| 2026-04-27 01:44 | 30.12045 | -94.74609 | 17201 ft | 351 kts | 255° |
| 2026-04-27 01:44 | 30.11324 | -94.77284 | 16701 ft | 347 kts | 255° |
| 2026-04-27 01:44 | 30.10610 | -94.79930 | 16220 ft | 343 kts | 255° |
| 2026-04-27 01:45 | 30.09902 | -94.82549 | 15745 ft | 340 kts | 255° |
| 2026-04-27 01:45 | 30.09199 | -94.85144 | 15272 ft | 337 kts | 255° |
| 2026-04-27 01:46 | 30.08431 | -94.87978 | 14753 ft | 335 kts | 255° |
| 2026-04-27 01:46 | 30.07738 | -94.90529 | 14279 ft | 333 kts | 255° |
| 2026-04-27 01:47 | 30.07048 | -94.93065 | 13953 ft | 326 kts | 255° |
| 2026-04-27 01:47 | 30.06372 | -94.95550 | 13709 ft | 324 kts | 255° |
| 2026-04-27 01:47 | 30.05698 | -94.98025 | 13490 ft | 325 kts | 255° |
| 2026-04-27 01:47 | 30.05016 | -95.00536 | 13268 ft | 329 kts | 254° |
| 2026-04-27 01:48 | 30.04335 | -95.03034 | 13048 ft | 331 kts | 254° |
| 2026-04-27 01:48 | 30.03645 | -95.05567 | 12825 ft | 330 kts | 254° |
| 2026-04-27 01:48 | 30.02955 | -95.08093 | 12605 ft | 329 kts | 254° |
| 2026-04-27 01:48 | 30.02268 | -95.10607 | 12391 ft | 328 kts | 254° |
| 2026-04-27 01:49 | 30.01486 | -95.13071 | 12155 ft | 329 kts | 243° |
| 2026-04-27 01:49 | 30.00045 | -95.15128 | 11930 ft | 333 kts | 223° |
| 2026-04-27 01:49 | 29.98062 | -95.16542 | 11519 ft | 341 kts | 203° |
| 2026-04-27 01:49 | 29.96195 | -95.17187 | 11232 ft | 341 kts | 197° |
| 2026-04-27 01:50 | 29.93899 | -95.17826 | 10835 ft | 337 kts | 195° |
| 2026-04-27 01:50 | 29.92497 | -95.18206 | 10590 ft | 333 kts | 195° |
| 2026-04-27 01:50 | 29.90267 | -95.18827 | 10197 ft | 327 kts | 196° |
| 2026-04-27 01:50 | 29.88078 | -95.19455 | 9818 ft | 321 kts | 196° |
| 2026-04-27 01:51 | 29.85932 | -95.20080 | 9406 ft | 316 kts | 196° |
| 2026-04-27 01:51 | 29.83828 | -95.20729 | 9027 ft | 310 kts | 197° |
| 2026-04-27 01:51 | 29.81774 | -95.21378 | 8655 ft | 304 kts | 197° |
| 2026-04-27 01:51 | 29.79750 | -95.22017 | 8300 ft | 298 kts | 197° |
| 2026-04-27 01:52 | 29.77830 | -95.22621 | 7963 ft | 293 kts | 197° |
| 2026-04-27 01:52 | 29.75878 | -95.23232 | 7620 ft | 288 kts | 197° |
| 2026-04-27 01:52 | 29.73982 | -95.23819 | 7295 ft | 283 kts | 196° |
| 2026-04-27 01:52 | 29.72083 | -95.24339 | 7012 ft | 278 kts | 188° |
| 2026-04-27 01:53 | 29.70163 | -95.24391 | 6906 ft | 276 kts | 181° |
| 2026-04-27 01:53 | 29.68241 | -95.24343 | 6760 ft | 276 kts | 180° |
| 2026-04-27 01:53 | 29.66583 | -95.24302 | 6652 ft | 273 kts | 181° |
| 2026-04-27 01:53 | 29.64686 | -95.24267 | 6526 ft | 271 kts | 181° |
| 2026-04-27 01:54 | 29.62810 | -95.24241 | 6419 ft | 269 kts | 181° |
| 2026-04-27 01:54 | 29.60945 | -95.24220 | 6296 ft | 267 kts | 181° |
| 2026-04-27 01:54 | 29.59092 | -95.24201 | 6177 ft | 266 kts | 181° |
| 2026-04-27 01:54 | 29.57249 | -95.24290 | 6065 ft | 266 kts | 194° |
| 2026-04-27 01:55 | 29.55587 | -95.25123 | 6038 ft | 265 kts | 215° |
| 2026-04-27 01:55 | 29.54250 | -95.26498 | 5835 ft | 252 kts | 224° |
| 2026-04-27 01:55 | 29.53005 | -95.27872 | 5358 ft | 243 kts | 221° |
| 2026-04-27 01:55 | 29.51781 | -95.29152 | 4877 ft | 234 kts | 219° |
| 2026-04-27 01:56 | 29.49404 | -95.31546 | 3904 ft | 222 kts | 217° |
| 2026-04-27 01:56 | 29.48246 | -95.32685 | 3420 ft | 218 kts | 222° |
| 2026-04-27 01:56 | 29.47640 | -95.34232 | 3119 ft | 224 kts | 263° |
| 2026-04-27 01:57 | 29.48086 | -95.35976 | 2815 ft | 241 kts | 302° |
| 2026-04-27 01:57 | 29.49229 | -95.37390 | 2505 ft | 241 kts | 311° |
| 2026-04-27 01:57 | 29.50410 | -95.38745 | 2143 ft | 238 kts | 311° |
| 2026-04-27 01:57 | 29.51752 | -95.39788 | 2013 ft | 233 kts | 344° |
| 2026-04-27 01:58 | 29.53265 | -95.39714 | 2000 ft | 210 kts | 26° |
| 2026-04-27 01:58 | 29.54487 | -95.38838 | 2030 ft | 208 kts | 40° |
| 2026-04-27 01:58 | 29.55590 | -95.37774 | 2020 ft | 203 kts | 47° |
| 2026-04-27 01:58 | 29.56565 | -95.36701 | 1969 ft | 186 kts | 49° |
| 2026-04-27 01:59 | 29.57481 | -95.35676 | 1756 ft | 180 kts | 49° |
| 2026-04-27 01:59 | 29.58371 | -95.34684 | 1523 ft | 176 kts | 49° |
| 2026-04-27 01:59 | 29.59231 | -95.33729 | 1299 ft | 171 kts | 49° |
| 2026-04-27 01:59 | 29.60044 | -95.32829 | 1122 ft | 152 kts | 49° |
| 2026-04-27 02:00 | 29.60781 | -95.32009 | 911 ft | 145 kts | 48° |
| 2026-04-27 02:00 | 29.61508 | -95.31202 | 736 ft | 145 kts | 49° |